createdAt,value
2016-11-29T16:04:26.208Z,57
2016-11-29T16:04:40.211Z,57
2016-11-29T16:04:59.143Z,57
2016-11-29T16:05:16.348Z,57
2016-11-29T16:05:35.181Z,57
2016-11-29T16:06:03.627Z,57
2016-11-29T16:06:21.980Z,57
2016-11-29T16:06:41.790Z,57
2016-11-29T16:07:00.538Z,57
2016-11-29T16:07:16.677Z,57
2016-11-29T16:07:32.525Z,57
2016-11-29T16:07:51.248Z,57
2016-11-29T16:08:04.501Z,57
2016-11-29T16:08:17.684Z,56
2016-11-29T16:08:30.737Z,56
2016-11-29T16:08:43.827Z,56
2016-11-29T16:08:56.871Z,56
2016-11-29T16:09:09.940Z,57
2016-11-29T16:09:28.972Z,56
2016-11-29T16:09:45.295Z,56
2016-11-29T16:10:06.841Z,56
2016-11-29T16:10:25.864Z,56
2016-11-29T16:10:41.801Z,56
2016-11-29T16:10:54.869Z,56
2016-11-29T16:11:10.853Z,56
2016-11-29T16:11:26.968Z,56
2016-11-29T16:11:42.739Z,56
2016-11-29T16:11:58.584Z,56
2016-11-29T16:12:11.854Z,56
2016-11-29T16:12:30.571Z,56
2016-11-29T16:12:46.524Z,56
2016-11-29T16:12:59.510Z,56
2016-11-29T16:13:15.521Z,56
2016-11-29T16:13:31.473Z,56
2016-11-29T16:13:48.251Z,56
2016-11-29T16:14:08.170Z,56
2016-11-29T16:14:27.006Z,56
2016-11-29T16:14:40.260Z,57
2016-11-29T16:14:53.094Z,57
2016-11-29T16:15:06.150Z,57
2016-11-29T16:15:25.103Z,57
2016-11-29T16:15:38.051Z,56
2016-11-29T16:15:59.702Z,56
2016-11-29T16:16:18.522Z,56
2016-11-29T16:16:31.371Z,56
2016-11-29T16:16:44.411Z,56
2016-11-29T16:16:57.669Z,56
2016-11-29T16:17:13.522Z,56
2016-11-29T16:17:26.577Z,56
2016-11-29T16:17:40.192Z,56
2016-11-29T16:17:53.348Z,56
2016-11-29T16:18:09.408Z,56
2016-11-29T16:18:25.285Z,56
2016-11-29T16:18:41.212Z,56
2016-11-29T16:18:54.374Z,56
2016-11-29T16:19:07.343Z,56
2016-11-29T16:19:20.481Z,56
2016-11-29T16:19:36.410Z,56
2016-11-29T16:19:55.259Z,56
2016-11-29T16:20:11.135Z,56
2016-11-29T16:20:24.081Z,55
2016-11-29T16:20:37.323Z,55
2016-11-29T16:20:56.131Z,55
2016-11-29T16:21:12.263Z,55
2016-11-29T16:21:25.240Z,55
2016-11-29T16:21:41.306Z,55
2016-11-29T16:21:57.059Z,55
2016-11-29T16:22:13.153Z,55
2016-11-29T16:22:29.002Z,55
2016-11-29T16:22:41.955Z,55
2016-11-29T16:22:55.097Z,55
2016-11-29T16:23:08.253Z,56
2016-11-29T16:23:24.569Z,56
2016-11-29T16:23:37.724Z,56
2016-11-29T16:23:53.495Z,56
2016-11-29T16:24:09.460Z,56
2016-11-29T16:24:25.588Z,56
2016-11-29T16:24:42.248Z,56
2016-11-29T16:24:55.186Z,56
2016-11-29T16:25:08.145Z,56
2016-11-29T16:25:21.106Z,56
2016-11-29T16:25:39.868Z,56
2016-11-29T16:25:53.434Z,56
2016-11-29T16:26:13.372Z,56
2016-11-29T16:26:29.442Z,56
2016-11-29T16:26:45.523Z,55
2016-11-29T16:27:02.761Z,55
2016-11-29T16:27:22.082Z,56
2016-11-29T16:27:41.941Z,56
2016-11-29T16:28:01.087Z,56
2016-11-29T16:28:20.336Z,56
2016-11-29T16:28:33.490Z,56
2016-11-29T16:28:52.907Z,56
2016-11-29T16:29:11.748Z,56
2016-11-29T16:29:30.692Z,56
2016-11-29T16:29:47.260Z,56
2016-11-29T16:30:03.061Z,56
2016-11-29T16:30:16.230Z,56
2016-11-29T16:30:29.337Z,56
2016-11-29T16:30:46.110Z,56
2016-11-29T16:31:02.211Z,56
2016-11-29T16:31:18.250Z,56
2016-11-29T16:31:36.934Z,56
2016-11-29T16:31:53.262Z,56
2016-11-29T16:32:06.345Z,56
2016-11-29T16:32:25.242Z,56
2016-11-29T16:32:41.299Z,56
2016-11-29T16:33:00.697Z,56
2016-11-29T16:33:19.444Z,56
2016-11-29T16:33:38.450Z,56
2016-11-29T16:33:51.512Z,56
2016-11-29T16:34:08.090Z,56
2016-11-29T16:34:24.108Z,56
2016-11-29T16:34:38.492Z,56
2016-11-29T16:34:57.361Z,56
2016-11-29T16:35:14.244Z,56
2016-11-29T16:35:33.597Z,56
2016-11-29T16:35:52.250Z,56
2016-11-29T16:36:05.316Z,56
2016-11-29T16:36:18.491Z,56
2016-11-29T16:36:31.580Z,56
2016-11-29T16:36:47.621Z,56
2016-11-29T16:37:03.782Z,56
2016-11-29T16:37:22.631Z,56
2016-11-29T16:37:38.990Z,56
2016-11-29T16:37:55.128Z,56
2016-11-29T16:38:08.334Z,56
2016-11-29T16:38:21.225Z,57
2016-11-29T16:38:37.278Z,57
2016-11-29T16:38:53.312Z,57
2016-11-29T16:39:06.263Z,56
2016-11-29T16:39:19.428Z,56
2016-11-29T16:39:35.432Z,56
2016-11-29T16:39:48.495Z,56
2016-11-29T16:40:10.135Z,56
2016-11-29T16:40:23.383Z,56
2016-11-29T16:40:42.232Z,56
2016-11-29T16:41:04.121Z,56
2016-11-29T16:41:19.897Z,56
2016-11-29T16:41:35.780Z,56
2016-11-29T16:41:48.985Z,57
2016-11-29T16:42:05.114Z,57
2016-11-29T16:42:21.022Z,56
2016-11-29T16:42:37.089Z,56
2016-11-29T16:42:52.919Z,56
2016-11-29T16:43:05.970Z,57
2016-11-29T16:43:21.853Z,57
2016-11-29T16:43:35.107Z,57
2016-11-29T16:43:53.944Z,57
2016-11-29T16:44:09.926Z,57
2016-11-29T16:44:28.683Z,57
2016-11-29T16:44:50.207Z,56
2016-11-29T16:45:03.466Z,56
2016-11-29T16:45:19.467Z,57
2016-11-29T16:45:38.215Z,57
2016-11-29T16:45:51.201Z,57
2016-11-29T16:46:07.222Z,57
2016-11-29T16:46:20.344Z,57
2016-11-29T16:46:36.174Z,57
2016-11-29T16:46:49.306Z,57
2016-11-29T16:47:02.257Z,57
2016-11-29T16:47:18.097Z,57
2016-11-29T16:47:34.052Z,56
2016-11-29T16:47:49.975Z,56
2016-11-29T16:48:09.019Z,56
2016-11-29T16:48:24.919Z,56
2016-11-29T16:48:41.391Z,56
2016-11-29T16:48:54.442Z,56
2016-11-29T16:49:13.365Z,56
2016-11-29T16:49:35.114Z,56
2016-11-29T16:49:53.929Z,56
2016-11-29T16:50:09.885Z,56
2016-11-29T16:50:25.793Z,55
2016-11-29T16:50:41.794Z,55
2016-11-29T16:50:55.867Z,55
2016-11-29T16:51:14.603Z,56
2016-11-29T16:51:27.681Z,55
2016-11-29T16:51:40.726Z,55
2016-11-29T16:51:53.757Z,55
2016-11-29T16:52:06.791Z,55
2016-11-29T16:52:19.872Z,55
2016-11-29T16:52:35.919Z,55
2016-11-29T16:52:48.892Z,55
2016-11-29T16:53:02.050Z,55
2016-11-29T16:53:18.068Z,55
2016-11-29T16:53:34.117Z,55
2016-11-29T16:53:52.884Z,55
2016-11-29T16:54:14.613Z,55
2016-11-29T16:54:33.352Z,55
2016-11-29T16:54:52.281Z,55
2016-11-29T16:55:08.303Z,55
2016-11-29T16:55:27.194Z,55
2016-11-29T16:55:42.942Z,55
2016-11-29T16:55:55.912Z,55
2016-11-29T16:56:09.001Z,55
2016-11-29T16:56:33.700Z,55
2016-11-29T16:56:49.751Z,55
2016-11-29T16:57:08.598Z,55
2016-11-29T16:57:27.368Z,55
2016-11-29T16:57:49.762Z,55
2016-11-29T16:58:05.761Z,55
2016-11-29T16:58:21.614Z,55
2016-11-29T16:58:40.561Z,55
2016-11-29T16:58:56.405Z,55
2016-11-29T16:59:12.270Z,55
2016-11-29T16:59:31.239Z,55
2016-11-29T16:59:50.092Z,55
2016-11-29T17:00:06.063Z,55
2016-11-29T17:00:24.906Z,55
2016-11-29T17:00:43.767Z,55
2016-11-29T17:00:56.897Z,55
2016-11-29T17:01:12.753Z,55
2016-11-29T17:01:25.913Z,55
2016-11-29T17:01:41.995Z,55
2016-11-29T17:01:57.855Z,55
2016-11-29T17:02:16.699Z,55
2016-11-29T17:02:29.739Z,56
2016-11-29T17:02:45.702Z,55
2016-11-29T17:03:02.154Z,55
2016-11-29T17:03:18.089Z,55
2016-11-29T17:03:31.028Z,56
2016-11-29T17:03:47.172Z,56
2016-11-29T17:04:03.089Z,56
2016-11-29T17:04:16.049Z,56
2016-11-29T17:04:32.108Z,56
2016-11-29T17:04:45.160Z,55
2016-11-29T17:05:01.951Z,55
2016-11-29T17:05:18.391Z,56
2016-11-29T17:05:37.287Z,55
2016-11-29T17:05:50.244Z,55
2016-11-29T17:06:06.104Z,56
2016-11-29T17:06:28.121Z,55
2016-11-29T17:06:46.870Z,56
2016-11-29T17:07:00.124Z,56
2016-11-29T17:07:15.883Z,55
2016-11-29T17:07:31.905Z,55
2016-11-29T17:07:45.002Z,56
2016-11-29T17:08:00.972Z,56
2016-11-29T17:08:14.021Z,56
2016-11-29T17:08:32.854Z,56
2016-11-29T17:08:45.810Z,56
2016-11-29T17:08:58.887Z,55
2016-11-29T17:09:17.853Z,55
2016-11-29T17:09:36.900Z,55
2016-11-29T17:09:52.841Z,55
2016-11-29T17:10:05.879Z,55
2016-11-29T17:10:24.655Z,55
2016-11-29T17:10:40.470Z,55
2016-11-29T17:10:56.598Z,55
2016-11-29T17:11:10.556Z,55
2016-11-29T17:11:26.590Z,55
2016-11-29T17:11:45.319Z,56
2016-11-29T17:12:04.144Z,55
2016-11-29T17:12:20.533Z,55
2016-11-29T17:12:39.500Z,55
2016-11-29T17:12:52.665Z,55
2016-11-29T17:13:08.500Z,56
2016-11-29T17:13:24.338Z,55
2016-11-29T17:13:40.800Z,55
2016-11-29T17:13:59.696Z,56
2016-11-29T17:14:15.820Z,56
2016-11-29T17:14:29.201Z,56
2016-11-29T17:14:42.247Z,55
2016-11-29T17:14:55.246Z,56
2016-11-29T17:15:08.327Z,56
2016-11-29T17:15:21.272Z,55
2016-11-29T17:15:34.219Z,55
2016-11-29T17:15:50.339Z,55
2016-11-29T17:16:03.206Z,55
2016-11-29T17:16:19.255Z,55
2016-11-29T17:16:35.285Z,56
2016-11-29T17:16:51.167Z,55
2016-11-29T17:17:04.247Z,55
2016-11-29T17:17:17.303Z,55
2016-11-29T17:17:33.249Z,55
2016-11-29T17:17:54.837Z,56
2016-11-29T17:18:10.968Z,56
2016-11-29T17:18:24.114Z,55
2016-11-29T17:18:42.813Z,55
2016-11-29T17:18:55.982Z,55
2016-11-29T17:19:09.173Z,55
2016-11-29T17:19:22.285Z,55
2016-11-29T17:19:41.052Z,55
2016-11-29T17:19:56.971Z,56
2016-11-29T17:20:09.944Z,55
2016-11-29T17:20:25.996Z,55
2016-11-29T17:20:42.023Z,55
2016-11-29T17:21:00.779Z,55
2016-11-29T17:21:19.706Z,54
2016-11-29T17:21:35.594Z,55
2016-11-29T17:21:54.984Z,55
2016-11-29T17:22:09.484Z,55
2016-11-29T17:22:25.209Z,55
2016-11-29T17:22:38.700Z,55
2016-11-29T17:22:54.701Z,55
2016-11-29T17:23:07.710Z,55
2016-11-29T17:23:29.254Z,55
2016-11-29T17:23:42.074Z,55
2016-11-29T17:23:55.277Z,55
2016-11-29T17:24:11.116Z,55
2016-11-29T17:24:24.078Z,55
2016-11-29T17:24:42.965Z,52
2016-11-29T17:24:59.083Z,47
2016-11-29T17:25:14.857Z,48
2016-11-29T17:25:27.890Z,49
2016-11-29T17:25:43.822Z,50
2016-11-29T17:25:56.860Z,51
2016-11-29T17:26:09.689Z,52
2016-11-29T17:26:25.620Z,52
2016-11-29T17:26:41.547Z,52
2016-11-29T17:26:54.683Z,53
2016-11-29T17:27:10.705Z,53
2016-11-29T17:27:26.506Z,53
2016-11-29T17:27:43.628Z,53
2016-11-29T17:27:56.562Z,53
2016-11-29T17:28:12.703Z,53
2016-11-29T17:28:25.533Z,53
2016-11-29T17:28:41.642Z,53
2016-11-29T17:29:00.384Z,53
2016-11-29T17:29:13.296Z,53
2016-11-29T17:29:29.394Z,54
2016-11-29T17:29:45.536Z,54
2016-11-29T17:30:09.476Z,54
2016-11-29T17:30:25.438Z,54
2016-11-29T17:30:38.466Z,54
2016-11-29T17:30:54.259Z,54
2016-11-29T17:31:09.987Z,54
2016-11-29T17:31:23.087Z,54
2016-11-29T17:31:36.024Z,54
2016-11-29T17:31:52.106Z,54
2016-11-29T17:32:04.957Z,54
2016-11-29T17:32:17.886Z,54
2016-11-29T17:32:31.015Z,54
2016-11-29T17:32:46.920Z,54
2016-11-29T17:32:59.879Z,54
2016-11-29T17:33:18.906Z,54
2016-11-29T17:33:34.730Z,54
2016-11-29T17:33:50.483Z,54
2016-11-29T17:34:03.612Z,54
2016-11-29T17:34:22.515Z,54
2016-11-29T17:34:35.349Z,54
2016-11-29T17:34:48.472Z,54
2016-11-29T17:35:04.291Z,54
2016-11-29T17:35:17.395Z,54
2016-11-29T17:35:33.341Z,54
2016-11-29T17:35:52.129Z,52
2016-11-29T17:36:05.084Z,52
2016-11-29T17:36:20.903Z,52
2016-11-29T17:36:34.039Z,53
2016-11-29T17:36:52.765Z,53
2016-11-29T17:37:05.819Z,53
2016-11-29T17:37:18.941Z,54
2016-11-29T17:37:34.804Z,53
2016-11-29T17:37:50.614Z,53
2016-11-29T17:38:03.518Z,53
2016-11-29T17:38:19.449Z,53
2016-11-29T17:38:32.662Z,53
2016-11-29T17:38:51.590Z,54
2016-11-29T17:39:07.390Z,54
2016-11-29T17:39:23.432Z,54
2016-11-29T17:39:36.466Z,54
2016-11-29T17:39:55.191Z,54
2016-11-29T17:40:13.977Z,54
2016-11-29T17:40:27.218Z,54
2016-11-29T17:40:40.055Z,54
2016-11-29T17:40:56.061Z,54
2016-11-29T17:41:09.090Z,54
2016-11-29T17:41:25.102Z,54
2016-11-29T17:41:40.940Z,54
2016-11-29T17:41:59.748Z,54
2016-11-29T17:42:18.593Z,54
2016-11-29T17:42:34.485Z,54
2016-11-29T17:42:47.545Z,54
2016-11-29T17:43:00.579Z,54
2016-11-29T17:43:19.365Z,54
2016-11-29T17:43:32.523Z,54
2016-11-29T17:43:48.340Z,54
2016-11-29T17:44:04.308Z,54
2016-11-29T17:44:20.163Z,54
2016-11-29T17:44:36.075Z,54
2016-11-29T17:44:54.800Z,54
2016-11-29T17:45:10.825Z,54
2016-11-29T17:45:26.821Z,54
2016-11-29T17:45:39.758Z,54
2016-11-29T17:45:52.809Z,54
2016-11-29T17:46:08.656Z,54
2016-11-29T17:46:21.686Z,55
2016-11-29T17:46:34.754Z,55
2016-11-29T17:46:50.772Z,55
2016-11-29T17:47:12.080Z,55
2016-11-29T17:47:40.478Z,55
2016-11-29T17:47:55.697Z,55
2016-11-29T17:48:08.609Z,55
2016-11-29T17:48:24.700Z,55
2016-11-29T17:48:37.643Z,55
2016-11-29T17:48:56.153Z,55
2016-11-29T17:49:13.307Z,55
2016-11-29T17:49:32.198Z,56
2016-11-29T17:49:48.144Z,56
2016-11-29T17:50:04.048Z,56
2016-11-29T17:50:20.515Z,56
2016-11-29T17:50:39.306Z,56
2016-11-29T17:50:52.260Z,56
2016-11-29T17:51:08.164Z,56
2016-11-29T17:51:24.253Z,56
2016-11-29T17:51:37.167Z,56
2016-11-29T17:51:50.201Z,56
2016-11-29T17:52:03.430Z,56
2016-11-29T17:52:16.265Z,57
2016-11-29T17:52:29.289Z,57
2016-11-29T17:52:45.137Z,57
2016-11-29T17:53:01.258Z,57
2016-11-29T17:53:19.878Z,57
2016-11-29T17:53:36.037Z,57
2016-11-29T17:53:49.007Z,57
2016-11-29T17:54:02.109Z,58
2016-11-29T17:54:17.954Z,58
2016-11-29T17:54:30.891Z,58
2016-11-29T17:54:46.776Z,59
2016-11-29T17:55:02.798Z,58
2016-11-29T17:55:15.634Z,58
2016-11-29T17:55:37.320Z,58
2016-11-29T17:55:50.266Z,57
2016-11-29T17:56:03.533Z,58
2016-11-29T17:56:16.491Z,59
2016-11-29T17:56:38.430Z,59
2016-11-29T17:56:59.998Z,59
2016-11-29T17:57:18.718Z,59
2016-11-29T17:57:31.866Z,59
2016-11-29T17:57:48.790Z,59
2016-11-29T17:58:01.840Z,59
2016-11-29T17:58:17.720Z,59
2016-11-29T17:58:33.639Z,59
2016-11-29T17:58:49.648Z,59
2016-11-29T17:59:08.598Z,60
2016-11-29T17:59:21.764Z,60
2016-11-29T17:59:34.651Z,60
2016-11-29T17:59:50.642Z,60
2016-11-29T18:00:09.379Z,60
2016-11-29T18:00:22.503Z,61
2016-11-29T18:00:35.588Z,60
2016-11-29T18:00:51.560Z,60
2016-11-29T18:01:07.396Z,60
2016-11-29T18:01:20.443Z,61
2016-11-29T18:01:33.604Z,60
2016-11-29T18:01:46.660Z,61
2016-11-29T18:02:02.616Z,61
2016-11-29T18:02:24.526Z,61
2016-11-29T18:02:43.277Z,61
2016-11-29T18:02:56.220Z,61
2016-11-29T18:03:12.145Z,61
2016-11-29T18:03:25.203Z,61
2016-11-29T18:03:38.308Z,62
2016-11-29T18:03:54.158Z,62
2016-11-29T18:04:07.237Z,62
2016-11-29T18:04:23.087Z,62
2016-11-29T18:04:41.978Z,61
2016-11-29T18:04:57.721Z,61
2016-11-29T18:05:16.737Z,62
2016-11-29T18:05:29.882Z,61
2016-11-29T18:05:45.638Z,61
2016-11-29T18:05:58.798Z,62
2016-11-29T18:06:11.891Z,62
2016-11-29T18:06:27.931Z,62
2016-11-29T18:06:46.704Z,62
2016-11-29T18:07:05.577Z,62
2016-11-29T18:07:24.416Z,62
2016-11-29T18:07:37.525Z,62
2016-11-29T18:07:50.503Z,62
2016-11-29T18:08:06.522Z,61
2016-11-29T18:08:22.479Z,61
2016-11-29T18:08:35.519Z,61
2016-11-29T18:08:51.441Z,61
2016-11-29T18:09:07.432Z,60
2016-11-29T18:09:23.281Z,61
2016-11-29T18:09:36.331Z,61
2016-11-29T18:09:49.281Z,61
2016-11-29T18:10:02.423Z,61
2016-11-29T18:10:15.570Z,61
2016-11-29T18:10:34.207Z,60
2016-11-29T18:10:50.240Z,60
2016-11-29T18:11:09.024Z,60
2016-11-29T18:11:27.849Z,60
2016-11-29T18:11:40.913Z,60
2016-11-29T18:11:56.965Z,60
2016-11-29T18:12:09.906Z,60
2016-11-29T18:12:23.003Z,60
2016-11-29T18:12:39.127Z,60
2016-11-29T18:12:52.117Z,60
2016-11-29T18:13:08.160Z,60
2016-11-29T18:13:26.875Z,60
2016-11-29T18:13:42.705Z,60
2016-11-29T18:13:58.832Z,60
2016-11-29T18:14:14.862Z,60
2016-11-29T18:14:27.910Z,60
2016-11-29T18:14:43.982Z,59
2016-11-29T18:14:56.959Z,59
2016-11-29T18:15:12.805Z,59
2016-11-29T18:15:28.830Z,60
2016-11-29T18:15:44.662Z,60
2016-11-29T18:15:57.702Z,59
2016-11-29T18:16:10.845Z,60
2016-11-29T18:16:26.717Z,60
2016-11-29T18:16:45.569Z,60
2016-11-29T18:17:01.434Z,60
2016-11-29T18:17:20.347Z,59
2016-11-29T18:17:33.336Z,59
2016-11-29T18:17:49.247Z,59
2016-11-29T18:18:05.111Z,59
2016-11-29T18:18:21.125Z,59
2016-11-29T18:18:37.178Z,59
2016-11-29T18:18:52.935Z,59
2016-11-29T18:19:06.183Z,59
2016-11-29T18:19:19.273Z,59
2016-11-29T18:19:37.981Z,59
2016-11-29T18:19:53.855Z,59
2016-11-29T18:20:12.674Z,59
2016-11-29T18:20:28.515Z,59
2016-11-29T18:20:41.593Z,59
2016-11-29T18:20:54.823Z,59
2016-11-29T18:21:10.690Z,59
2016-11-29T18:21:26.734Z,59
2016-11-29T18:21:42.574Z,59
2016-11-29T18:22:01.317Z,59
2016-11-29T18:22:14.389Z,59
2016-11-29T18:22:30.258Z,59
2016-11-29T18:22:46.204Z,59
2016-11-29T18:23:02.361Z,59
2016-11-29T18:23:18.106Z,59
2016-11-29T18:23:33.983Z,59
2016-11-29T18:23:50.003Z,59
2016-11-29T18:24:05.976Z,59
2016-11-29T18:24:21.746Z,59
2016-11-29T18:24:34.910Z,59
2016-11-29T18:24:48.460Z,59
2016-11-29T18:25:04.396Z,59
2016-11-29T18:25:17.465Z,59
2016-11-29T18:25:30.710Z,59
2016-11-29T18:25:46.550Z,59
2016-11-29T18:26:05.310Z,59
2016-11-29T18:26:21.490Z,59
2016-11-29T18:26:40.218Z,57
2016-11-29T18:26:56.163Z,50
2016-11-29T18:27:12.024Z,48
2016-11-29T18:27:30.929Z,49
2016-11-29T18:27:48.397Z,51
2016-11-29T18:28:04.390Z,52
2016-11-29T18:28:20.137Z,54
2016-11-29T18:28:36.047Z,54
2016-11-29T18:28:52.195Z,55
2016-11-29T18:29:08.159Z,55
2016-11-29T18:29:23.933Z,56
2016-11-29T18:29:36.875Z,56
2016-11-29T18:29:50.008Z,56
2016-11-29T18:30:03.345Z,56
2016-11-29T18:30:22.224Z,56
2016-11-29T18:30:40.899Z,56
2016-11-29T18:30:56.818Z,56
2016-11-29T18:31:10.094Z,56
2016-11-29T18:31:28.827Z,57
2016-11-29T18:31:41.897Z,57
2016-11-29T18:31:57.752Z,57
2016-11-29T18:32:16.680Z,57
2016-11-29T18:32:35.537Z,57
2016-11-29T18:32:48.783Z,57
2016-11-29T18:33:04.750Z,57
2016-11-29T18:33:26.527Z,58
2016-11-29T18:33:42.498Z,58
2016-11-29T18:33:58.340Z,57
2016-11-29T18:34:11.405Z,57
2016-11-29T18:34:27.368Z,57
2016-11-29T18:34:43.353Z,57
2016-11-29T18:35:02.117Z,57
2016-11-29T18:35:18.263Z,57
2016-11-29T18:35:34.193Z,57
2016-11-29T18:35:52.940Z,57
2016-11-29T18:36:11.787Z,57
2016-11-29T18:36:27.840Z,57
2016-11-29T18:36:40.882Z,57
2016-11-29T18:36:56.975Z,57
2016-11-29T18:37:12.859Z,57
2016-11-29T18:37:25.933Z,57
2016-11-29T18:37:42.006Z,57
2016-11-29T18:37:58.080Z,57
2016-11-29T18:38:17.004Z,57
2016-11-29T18:38:30.157Z,57
2016-11-29T18:38:46.016Z,57
2016-11-29T18:39:04.877Z,57
2016-11-29T18:39:20.992Z,57
2016-11-29T18:39:34.113Z,57
2016-11-29T18:39:47.107Z,57
2016-11-29T18:40:01.420Z,57
2016-11-29T18:40:15.527Z,57
2016-11-29T18:40:30.988Z,57
2016-11-29T18:40:48.095Z,57
2016-11-29T18:41:01.283Z,57
2016-11-29T18:41:26.802Z,57
2016-11-29T18:41:43.265Z,57
2016-11-29T18:42:02.224Z,57
2016-11-29T18:42:22.742Z,57
2016-11-29T18:42:39.550Z,57
2016-11-29T18:42:58.971Z,57
2016-11-29T18:43:19.647Z,57
2016-11-29T18:43:39.914Z,57
2016-11-29T18:43:58.804Z,57
2016-11-29T18:44:14.848Z,57
2016-11-29T18:44:33.812Z,57
2016-11-29T18:44:52.557Z,57
2016-11-29T18:45:11.366Z,57
2016-11-29T18:45:30.168Z,57
2016-11-29T18:45:46.149Z,57
2016-11-29T18:46:02.173Z,56
2016-11-29T18:46:15.369Z,57
2016-11-29T18:46:28.453Z,57
2016-11-29T18:46:48.134Z,57
2016-11-29T18:47:01.720Z,57
2016-11-29T18:47:17.668Z,57
2016-11-29T18:47:34.151Z,57
2016-11-29T18:47:49.925Z,57
2016-11-29T18:48:14.727Z,57
2016-11-29T18:48:33.896Z,56
2016-11-29T18:48:50.217Z,57
2016-11-29T18:49:09.724Z,56
2016-11-29T18:49:29.334Z,56
2016-11-29T18:49:46.044Z,57
2016-11-29T18:50:07.927Z,57
2016-11-29T18:50:21.608Z,56
2016-11-29T18:50:45.163Z,56
2016-11-29T18:51:02.187Z,56
2016-11-29T18:51:19.684Z,57
2016-11-29T18:51:37.266Z,56
2016-11-29T18:51:56.360Z,56
2016-11-29T18:52:18.708Z,57
2016-11-29T18:52:31.877Z,57
2016-11-29T18:52:53.405Z,57
2016-11-29T18:53:09.314Z,57
2016-11-29T18:53:28.157Z,57
2016-11-29T18:53:44.020Z,57
2016-11-29T18:53:57.188Z,57
2016-11-29T18:54:13.055Z,57
2016-11-29T18:54:29.087Z,56
2016-11-29T18:54:45.067Z,57
2016-11-29T18:54:58.579Z,57
2016-11-29T18:55:14.356Z,57
2016-11-29T18:55:27.416Z,57
2016-11-29T18:55:40.644Z,57
2016-11-29T18:56:02.295Z,56
2016-11-29T18:56:15.476Z,57
2016-11-29T18:56:31.521Z,57
2016-11-29T18:56:47.527Z,57
2016-11-29T18:57:03.823Z,57
2016-11-29T18:57:23.166Z,56
2016-11-29T18:57:39.392Z,57
2016-11-29T18:57:55.395Z,57
2016-11-29T18:58:14.466Z,57
2016-11-29T18:58:33.277Z,57
2016-11-29T18:58:55.462Z,58
2016-11-29T18:59:15.793Z,58
2016-11-29T18:59:34.744Z,58
2016-11-29T19:00:03.160Z,57
2016-11-29T19:00:25.241Z,57
2016-11-29T19:00:41.147Z,57
2016-11-29T19:01:03.212Z,57
2016-11-29T19:01:20.374Z,57
2016-11-29T19:01:36.700Z,57
2016-11-29T19:01:49.854Z,57
2016-11-29T19:02:09.452Z,57
2016-11-29T19:02:25.979Z,57
2016-11-29T19:02:47.465Z,57
2016-11-29T19:03:10.210Z,57
2016-11-29T19:03:31.885Z,57
2016-11-29T19:04:04.338Z,57
2016-11-29T19:04:24.477Z,57
2016-11-29T19:04:40.452Z,57
2016-11-29T19:04:53.693Z,57
2016-11-29T19:05:17.279Z,57
2016-11-29T19:05:33.247Z,57
2016-11-29T19:05:49.915Z,57
2016-11-29T19:06:33.668Z,57
